Time;durP1;ratioP1;P1;durP2;ratioP2;P2;SDS_P1;SDS_P2;PMS_P1;PMS_P2;Temp;Humidity;BMP_temperature;BMP_pressure;BME280_temperature;BME280_humidity;BME280_pressure;Samples;Min_cycle;Max_cycle;Signal;HPM_P1;HPM_P2
2023/07/06 00:00:41;;;;;;;3.20;1.75;;;;;;;14.77;57.44;99964.72;5037578;28;20079;-44
2023/07/06 00:03:07;;;;;;;3.35;1.70;;;;;;;14.75;57.98;99956.03;5034487;28;20045;-45
2023/07/06 00:05:34;;;;;;;4.70;2.05;;;;;;;14.71;57.54;99959.59;5041841;28;20098;-42
2023/07/06 00:08:02;;;;;;;3.28;2.70;;;;;;;14.69;57.86;99961.41;5047371;28;20136;-46
2023/07/06 00:10:30;;;;;;;2.38;1.77;;;;;;;14.65;58.14;99964.06;5041869;28;20053;-46
2023/07/06 00:13:01;;;;;;;1.98;1.73;;;;;;;14.61;58.25;99965.03;5042099;28;20601;-45
2023/07/06 00:15:27;;;;;;;3.42;2.08;;;;;;;14.59;57.99;99960.75;5040048;28;20049;-48
2023/07/06 00:17:55;;;;;;;4.40;1.95;;;;;;;14.56;58.43;99966.84;5041866;28;20607;-50
2023/07/06 00:20:22;;;;;;;2.38;1.52;;;;;;;14.53;58.49;99972.16;5041844;28;20099;-42
2023/07/06 00:22:49;;;;;;;7.68;2.28;;;;;;;14.48;58.02;99973.97;5039580;28;20041;-46
2023/07/06 00:25:16;;;;;;;2.35;1.90;;;;;;;14.44;58.89;99969.72;5043370;28;20052;-52
2023/07/06 00:27:43;;;;;;;2.85;2.53;;;;;;;14.42;58.45;99974.09;5045046;28;20048;-47
2023/07/06 00:30:20;;;;;;;3.08;2.10;;;;;;;14.38;58.33;99973.28;5044407;28;20068;-44
2023/07/06 00:32:47;;;;;;;5.30;3.10;;;;;;;14.33;59.14;99981.22;5041749;28;20056;-43
2023/07/06 00:35:15;;;;;;;2.22;1.13;;;;;;;14.31;58.58;99982.13;5047254;28;20639;-43
2023/07/06 00:37:42;;;;;;;3.58;1.98;;;;;;;14.26;58.28;99987.44;5043245;28;20103;-48
2023/07/06 00:40:13;;;;;;;2.65;2.28;;;;;;;14.24;59.40;99991.81;5045445;28;20045;-42
2023/07/06 00:42:41;;;;;;;2.70;1.88;;;;;;;14.19;58.46;99978.00;5046852;28;20091;-45
2023/07/06 00:45:12;;;;;;;5.47;2.75;;;;;;;14.16;59.50;99983.28;5045230;28;20770;-47
2023/07/06 00:47:44;;;;;;;2.85;2.25;;;;;;;14.14;59.44;99978.09;5037926;28;20148;-49
2023/07/06 00:50:16;;;;;;;4.63;2.80;;;;;;;14.09;58.89;99978.16;5037252;28;20497;-44
2023/07/06 00:52:49;;;;;;;3.60;1.50;;;;;;;14.04;59.13;99971.31;5046399;28;20049;-39
2023/07/06 00:55:19;;;;;;;3.20;2.13;;;;;;;14.00;59.36;99962.72;5041974;28;20052;-43
2023/07/06 00:57:51;;;;;;;3.00;1.20;;;;;;;13.97;59.64;99968.84;5038371;28;20456;-52
2023/07/06 01:00:21;;;;;;;3.63;1.75;;;;;;;13.93;59.15;99968.94;5043165;28;20078;-48
2023/07/06 01:02:56;;;;;;;7.63;2.58;;;;;;;13.88;59.88;99977.69;5043018;28;20118;-48
2023/07/06 01:05:25;;;;;;;3.42;1.95;;;;;;;13.85;59.88;99969.91;5042860;28;20073;-42
2023/07/06 01:07:54;;;;;;;3.95;2.42;;;;;;;13.82;59.39;99966.53;5039567;28;20041;-43
2023/07/06 01:10:21;;;;;;;;;;;;;;;13.58;60.24;99972.09;5045407;28;20048;-46
2023/07/06 01:12:48;;;;;;;3.72;2.65;;;;;;;13.70;60.13;99970.19;5047083;28;19921;-50
2023/07/06 01:15:16;;;;;;;4.55;2.13;;;;;;;13.70;59.82;99976.25;5044863;28;20052;-47
2023/07/06 01:17:55;;;;;;;4.53;2.53;;;;;;;13.67;59.88;99967.63;5045199;28;20508;-49
2023/07/06 01:20:34;;;;;;;6.20;1.52;;;;;;;13.65;60.44;99966.81;5043861;28;20424;-43
2023/07/06 01:23:29;;;;;;;2.80;1.95;;;;;;;13.58;59.45;99972.09;5045533;28;20103;-44
2023/07/06 01:26:22;;;;;;;4.03;1.95;;;;;;;13.54;59.81;99974.81;5034760;28;20053;-45
2023/07/06 01:29:29;;;;;;;2.60;2.08;;;;;;;13.50;60.55;99973.97;5038518;28;20049;-41
2023/07/06 01:32:02;;;;;;;2.95;1.88;;;;;;;13.52;60.55;99972.22;5043477;28;20057;-47
2023/07/06 01:34:41;;;;;;;2.95;1.05;;;;;;;13.51;60.30;99967.88;5037913;28;20264;-47
2023/07/06 01:37:29;;;;;;;3.42;2.30;;;;;;;13.42;60.21;99965.41;5048317;28;20049;-46
2023/07/06 01:39:57;;;;;;;4.47;2.15;;;;;;;13.45;60.28;99970.56;5050051;28;20897;-40
2023/07/06 01:47:45;;;;;;;7.90;1.35;;;;;;;13.40;61.29;99972.41;5109964;27;20398;-47
2023/07/06 01:50:13;;;;;;;2.67;1.15;;;;;;;13.37;61.67;99973.28;5057531;28;20045;-43
2023/07/06 02:01:02;;;;;;;3.08;0.90;;;;;;;13.23;62.07;99968.28;5098575;27;20408;-42
2023/07/06 02:03:30;;;;;;;4.40;0.95;;;;;;;13.23;62.12;99965.69;5101151;28;20100;-43
2023/07/06 02:05:57;;;;;;;3.03;0.90;;;;;;;13.21;61.42;99972.66;5098588;27;20047;-50
2023/07/06 02:08:25;;;;;;;2.88;1.00;;;;;;;13.18;61.59;99970.09;5100487;28;20044;-45
2023/07/06 02:10:52;;;;;;;5.43;1.02;;;;;;;13.16;62.65;99964.06;5100188;28;20531;-52
2023/07/06 02:13:19;;;;;;;4.95;1.02;;;;;;;13.15;62.51;99967.53;5100192;28;20047;-48
2023/07/06 02:15:46;;;;;;;5.97;1.52;;;;;;;13.14;62.01;99963.22;5101691;28;20056;-43
2023/07/06 02:18:13;;;;;;;2.58;1.00;;;;;;;13.10;61.84;99955.47;5096142;28;20085;-50
2023/07/06 02:20:39;;;;;;;7.85;1.40;;;;;;;13.09;62.08;99958.97;5098040;28;20051;-42
2023/07/06 02:23:07;;;;;;;5.97;1.65;;;;;;;13.06;63.21;99959.00;5096834;28;20123;-42
2023/07/06 02:25:35;;;;;;;4.80;1.27;;;;;;;13.07;62.11;99962.47;5097226;28;20044;-45
2023/07/06 02:28:03;;;;;;;3.13;1.30;;;;;;;13.06;61.89;99958.13;5102662;28;20051;-47
2023/07/06 02:30:29;;;;;;;4.65;0.68;;;;;;;13.05;62.24;99959.03;5096654;28;20097;-49
2023/07/06 02:32:56;;;;;;;5.05;1.65;;;;;;;13.04;63.03;99952.13;5104928;27;20617;-46
2023/07/06 02:35:23;;;;;;;3.00;1.88;;;;;;;13.04;62.03;99954.72;5100852;28;20119;-48
2023/07/06 02:37:49;;;;;;;5.65;1.48;;;;;;;13.04;62.54;99952.94;5100837;28;20054;-52
2023/07/06 02:40:17;;;;;;;7.47;1.58;;;;;;;13.04;62.85;99955.56;5108445;28;20135;-50
2023/07/06 02:42:44;;;;;;;3.72;1.50;;;;;;;13.04;62.67;99950.34;5100988;28;20063;-46
2023/07/06 02:45:11;;;;;;;4.22;1.30;;;;;;;13.05;63.54;99946.88;5094855;27;20048;-50
2023/07/06 02:47:40;;;;;;;7.97;1.83;;;;;;;13.05;63.75;99946.03;5083625;28;20052;-44
2023/07/06 02:50:11;;;;;;;4.00;1.77;;;;;;;13.06;63.86;99952.94;5099781;27;20054;-46
2023/07/06 02:52:39;;;;;;;6.10;1.30;;;;;;;13.04;63.91;99945.16;5101868;28;20553;-46
2023/07/06 02:55:09;;;;;;;6.05;1.48;;;;;;;13.03;63.03;99943.44;5097453;28;20517;-47
2023/07/06 02:57:39;;;;;;;6.53;1.17;;;;;;;13.01;63.75;99945.22;5094616;28;20036;-49
2023/07/06 03:00:12;;;;;;;4.05;1.25;;;;;;;13.01;63.44;99950.41;5091194;28;20043;-52
2023/07/06 03:02:39;;;;;;;4.70;1.17;;;;;;;12.98;63.96;99947.84;5090547;28;20046;-52
2023/07/06 03:05:06;;;;;;;3.72;1.23;;;;;;;12.95;62.79;99951.38;5092200;28;20539;-49
2023/07/06 03:07:34;;;;;;;4.18;1.25;;;;;;;12.92;63.80;99956.59;5080121;28;20052;-48
2023/07/06 03:10:03;;;;;;;4.80;1.33;;;;;;;12.91;64.12;99954.03;5078238;28;20506;-50
2023/07/06 03:12:33;;;;;;;7.13;1.58;;;;;;;12.88;63.48;99952.34;5066869;28;20044;-47
2023/07/06 03:15:00;;;;;;;3.30;1.27;;;;;;;12.84;63.74;99948.91;5065415;28;20072;-49
2023/07/06 03:17:27;;;;;;;3.55;0.98;;;;;;;12.82;64.22;99950.66;5067852;28;20586;-47
2023/07/06 03:19:53;;;;;;;2.70;1.38;;;;;;;12.80;63.80;99957.63;5069654;28;20055;-47
2023/07/06 03:22:20;;;;;;;2.85;0.77;;;;;;;12.78;64.65;99956.78;5055917;28;20532;-45
2023/07/06 03:24:47;;;;;;;3.47;1.52;;;;;;;12.75;64.27;99959.44;5064013;28;20052;-48
2023/07/06 03:27:14;;;;;;;3.95;1.08;;;;;;;12.73;64.80;99955.97;5073542;28;20048;-42
2023/07/06 03:29:41;;;;;;;3.80;1.48;;;;;;;12.73;63.95;99963.78;5078222;28;20064;-42
2023/07/06 03:32:08;;;;;;;3.00;1.10;;;;;;;12.70;63.57;99964.69;5063468;28;20056;-42
2023/07/06 03:34:35;;;;;;;3.08;0.98;;;;;;;12.67;64.91;99956.91;5085335;28;20048;-45
2023/07/06 03:37:04;;;;;;;2.28;0.95;;;;;;;12.65;64.42;99965.63;5083540;28;21771;-51
2023/07/06 03:39:31;;;;;;;4.45;1.10;;;;;;;12.63;63.70;99964.78;5089303;28;20524;-45
2023/07/06 03:41:58;;;;;;;4.47;1.30;;;;;;;12.60;64.92;99969.13;5074822;28;20131;-52
2023/07/06 03:44:24;;;;;;;4.80;1.50;;;;;;;12.59;64.79;99974.34;5067047;28;20048;-44
2023/07/06 03:46:51;;;;;;;3.45;1.50;;;;;;;12.57;64.05;99966.56;5062565;28;20080;-42
2023/07/06 03:49:18;;;;;;;6.45;1.30;;;;;;;12.55;65.02;99968.34;5063513;28;20047;-45
2023/07/06 03:51:47;;;;;;;5.35;1.35;;;;;;;12.54;64.01;99971.81;5057704;28;20059;-48
2023/07/06 03:54:14;;;;;;;4.38;1.48;;;;;;;12.51;64.84;99966.66;5060123;28;20090;-49
2023/07/06 03:56:42;;;;;;;3.33;1.02;;;;;;;12.50;64.07;99967.50;5061411;28;20052;-45
2023/07/06 03:59:09;;;;;;;3.42;1.48;;;;;;;12.47;64.39;99970.19;5063461;28;20104;-40
2023/07/06 04:01:36;;;;;;;4.60;1.38;;;;;;;12.45;63.86;99971.91;5065101;28;20412;-47
2023/07/06 04:04:06;;;;;;;7.18;1.15;;;;;;;12.44;64.01;99975.41;5079894;28;20521;-48
2023/07/06 04:06:40;;;;;;;3.65;1.42;;;;;;;12.42;64.92;99974.53;5068989;28;20115;-47
2023/07/06 04:09:09;;;;;;;8.60;1.70;;;;;;;12.41;65.50;99959.84;5072380;28;20095;-47
2023/07/06 04:11:36;;;;;;;2.72;1.35;;;;;;;12.40;65.04;99969.38;5082496;28;20143;-46
2023/07/06 04:14:03;;;;;;;6.93;1.67;;;;;;;12.39;63.96;99980.63;5083325;28;20419;-42
2023/07/06 04:16:30;;;;;;;4.20;1.05;;;;;;;12.38;64.42;99972.84;5081258;28;20112;-46
2023/07/06 04:18:57;;;;;;;6.97;1.27;;;;;;;12.36;64.51;99977.22;5081652;28;20055;-49
2023/07/06 04:21:23;;;;;;;3.95;1.08;;;;;;;12.34;64.54;99978.09;5081044;28;20973;-47
2023/07/06 04:23:50;;;;;;;4.13;1.50;;;;;;;12.33;64.76;99973.78;5082198;28;20105;-42
2023/07/06 04:26:19;;;;;;;4.03;1.73;;;;;;;12.34;65.19;99985.88;5079411;28;20052;-44
2023/07/06 04:28:48;;;;;;;3.72;1.27;;;;;;;12.34;65.66;99991.06;5079984;28;20047;-47
2023/07/06 04:31:16;;;;;;;5.70;1.67;;;;;;;12.33;64.44;99989.34;5055323;28;20045;-46
2023/07/06 04:33:45;;;;;;;2.70;1.38;;;;;;;12.32;64.85;99992.84;5065832;28;20459;-47
2023/07/06 04:36:14;;;;;;;2.47;0.90;;;;;;;12.33;65.96;99991.94;5076427;28;20051;-45
2023/07/06 04:38:41;;;;;;;6.03;1.25;;;;;;;12.32;65.31;99992.84;5085244;28;20051;-50
2023/07/06 04:41:08;;;;;;;3.67;1.17;;;;;;;12.34;66.17;99996.25;5080733;28;20063;-49
2023/07/06 04:43:35;;;;;;;4.13;1.35;;;;;;;12.39;64.97;99995.38;5086855;28;20059;-45
2023/07/06 04:46:02;;;;;;;6.03;1.17;;;;;;;12.40;66.29;99991.91;5086130;28;20068;-46
2023/07/06 04:48:29;;;;;;;4.32;0.98;;;;;;;12.43;65.19;99994.47;5070918;28;20583;-47
2023/07/06 04:50:56;;;;;;;3.80;1.42;;;;;;;12.45;66.21;99990.97;5061605;28;20083;-45
2023/07/06 04:53:23;;;;;;;4.40;1.45;;;;;;;12.47;65.96;99996.16;5061545;28;20044;-50
2023/07/06 04:55:50;;;;;;;5.05;1.45;;;;;;;12.49;65.27;99989.19;5062690;28;20187;-39
2023/07/06 04:58:18;;;;;;;4.25;1.23;;;;;;;12.54;64.78;99992.59;5057276;28;20056;-50
2023/07/06 05:00:45;;;;;;;1.75;0.88;;;;;;;12.59;65.33;99985.59;5060504;28;20044;-44
2023/07/06 05:03:13;;;;;;;4.43;0.90;;;;;;;12.66;66.24;99995.94;5057156;28;20052;-43
2023/07/06 05:05:43;;;;;;;7.15;1.70;;;;;;;12.75;65.52;99994.94;5059481;28;20044;-51
2023/07/06 05:08:15;;;;;;;4.85;0.93;;;;;;;12.82;65.82;100002.66;5063227;28;20041;-44
2023/07/06 05:10:45;;;;;;;4.63;1.02;;;;;;;12.89;66.46;100002.56;5080436;28;20497;-52
2023/07/06 05:13:12;;;;;;;4.85;1.40;;;;;;;12.96;65.38;100004.19;5081495;28;20044;-42
2023/07/06 05:15:39;;;;;;;4.30;1.00;;;;;;;13.05;66.61;100006.69;5068558;28;20056;-45
2023/07/06 05:18:06;;;;;;;3.58;1.40;;;;;;;13.14;65.17;99997.03;5061137;28;20610;-43
2023/07/06 05:20:33;;;;;;;5.63;1.70;;;;;;;13.23;65.50;100002.09;5063610;28;20040;-46
2023/07/06 05:23:03;;;;;;;6.38;1.35;;;;;;;13.32;66.08;100006.31;5060391;28;20044;-50
2023/07/06 05:25:30;;;;;;;4.38;1.35;;;;;;;13.42;65.87;100007.91;5058397;28;20075;-42
2023/07/06 05:27:56;;;;;;;5.38;1.15;;;;;;;13.54;66.04;100006.88;5079245;28;20075;-45
2023/07/06 05:30:23;;;;;;;3.75;1.52;;;;;;;13.65;65.57;99998.03;5074477;28;20066;-43
2023/07/06 05:32:49;;;;;;;2.38;0.90;;;;;;;13.78;65.80;99999.53;5076251;28;20056;-43
2023/07/06 05:35:18;;;;;;;3.97;1.52;;;;;;;13.94;65.38;100004.47;5064986;28;20052;-48
2023/07/06 05:37:45;;;;;;;4.03;1.58;;;;;;;14.08;65.47;100009.47;5062936;28;20500;-45
2023/07/06 05:40:12;;;;;;;2.35;1.00;;;;;;;14.23;66.05;100005.72;5066172;28;20068;-44
2023/07/06 05:42:38;;;;;;;4.60;1.15;;;;;;;14.35;65.24;100009.81;5062327;28;20059;-42
2023/07/06 05:45:07;;;;;;;5.38;1.45;;;;;;;14.47;65.35;100008.75;5063416;28;20048;-45
2023/07/06 05:47:34;;;;;;;4.63;1.35;;;;;;;14.58;65.03;100017.22;5080451;28;20045;-45
2023/07/06 05:50:01;;;;;;;3.65;1.48;;;;;;;14.69;65.24;100021.34;5078558;28;20040;-44
2023/07/06 05:52:28;;;;;;;3.85;1.08;;;;;;;14.78;65.22;100024.66;5079849;28;20648;-39
2023/07/06 05:54:55;;;;;;;3.63;1.27;;;;;;;14.91;64.77;100019.19;5079940;28;20045;-47
2023/07/06 05:57:21;;;;;;;2.90;1.17;;;;;;;15.02;64.35;100026.78;5082676;28;20603;-42
2023/07/06 05:59:48;;;;;;;3.22;1.27;;;;;;;15.12;64.39;100025.69;5081724;28;20075;-46
2023/07/06 06:02:17;;;;;;;3.38;1.00;;;;;;;15.27;64.90;100026.25;5078876;28;20056;-48
2023/07/06 06:04:45;;;;;;;5.35;1.20;;;;;;;15.40;64.59;100030.28;5077581;28;20056;-46
2023/07/06 06:07:12;;;;;;;3.85;0.88;;;;;;;15.54;63.37;100032.56;5055713;28;20059;-54
2023/07/06 06:09:39;;;;;;;3.42;0.93;;;;;;;15.67;64.03;100030.53;5053846;28;20144;-45
2023/07/06 06:12:06;;;;;;;2.83;1.02;;;;;;;15.79;63.44;100023.28;5060512;28;20040;-43
2023/07/06 06:14:34;;;;;;;5.22;0.90;;;;;;;15.90;63.29;100021.25;5052859;28;20049;-48
2023/07/06 06:17:01;;;;;;;4.47;1.20;;;;;;;16.01;63.41;100030.63;5056189;28;20044;-50
2023/07/06 06:19:27;;;;;;;4.80;0.90;;;;;;;16.12;63.65;100025.97;5055200;28;20090;-44
2023/07/06 06:21:54;;;;;;;5.78;0.90;;;;;;;16.27;62.78;100026.44;5075903;28;20047;-45
2023/07/06 06:24:22;;;;;;;2.53;1.15;;;;;;;16.42;63.30;100026.03;5078950;28;20044;-53
2023/07/06 06:26:50;;;;;;;3.40;1.42;;;;;;;16.63;62.53;100030.72;5079622;28;20477;-48
2023/07/06 06:29:17;;;;;;;4.88;1.30;;;;;;;16.76;61.78;100031.22;5076234;28;20054;-41
2023/07/06 06:31:44;;;;;;;2.90;1.00;;;;;;;16.90;62.84;100029.06;5078777;28;20052;-46
2023/07/06 06:34:11;;;;;;;2.70;1.17;;;;;;;17.09;62.13;100033.75;5078209;28;20135;-43
2023/07/06 06:36:38;;;;;;;4.22;1.00;;;;;;;17.28;61.73;100043.66;5077282;28;20094;-46
2023/07/06 06:39:06;;;;;;;5.50;0.98;;;;;;;17.43;61.75;100037.94;5074691;28;20052;-48
2023/07/06 06:41:33;;;;;;;4.97;1.23;;;;;;;17.59;61.85;100047.94;5079390;28;20048;-43
2023/07/06 06:44:00;;;;;;;3.55;1.77;;;;;;;17.76;61.30;100049.19;5077568;28;20056;-49
2023/07/06 06:46:27;;;;;;;3.92;1.20;;;;;;;17.95;61.12;100050.28;5074813;28;20415;-41
2023/07/06 06:48:54;;;;;;;5.97;1.40;;;;;;;18.13;60.24;100053.19;5081035;28;20048;-46
2023/07/06 06:51:21;;;;;;;7.00;1.42;;;;;;;18.30;59.83;100054.41;5075494;28;20493;-43
2023/07/06 06:53:48;;;;;;;4.43;0.90;;;;;;;18.52;60.43;100059.72;5078011;28;20179;-41
2023/07/06 06:56:15;;;;;;;4.72;1.13;;;;;;;18.73;59.75;100062.47;5076249;28;20055;-44
2023/07/06 06:58:41;;;;;;;1.95;1.02;;;;;;;18.95;59.46;100065.16;5080105;28;20056;-50
2023/07/06 07:01:11;;;;;;;4.38;0.90;;;;;;;19.20;59.03;100061.66;5081280;28;20402;-42
2023/07/06 07:03:37;;;;;;;4.90;1.10;;;;;;;19.39;58.39;100061.78;5091884;28;20045;-44
2023/07/06 07:06:11;;;;;;;2.45;1.13;;;;;;;19.55;58.04;100068.22;5069002;28;20060;-47
2023/07/06 07:11:19;;;;;;;6.72;1.20;;;;;;;19.87;57.05;100066.03;5065053;27;20390;-42
2023/07/06 07:13:52;;;;;;;5.30;0.90;;;;;;;20.04;57.24;100063.56;5015595;28;20525;-44
2023/07/06 07:16:19;;;;;;;2.20;1.13;;;;;;;20.24;56.29;100072.41;5032347;28;20060;-43
2023/07/06 07:18:47;;;;;;;3.40;1.17;;;;;;;20.45;56.54;100067.13;5032478;28;20056;-47
2023/07/06 07:21:16;;;;;;;4.32;0.90;;;;;;;20.70;56.11;100068.66;5036660;28;20159;-47
2023/07/06 07:23:45;;;;;;;3.83;0.88;;;;;;;20.97;55.45;100070.16;5038755;28;20050;-43
2023/07/06 07:26:15;;;;;;;3.95;0.90;;;;;;;21.18;55.08;100070.94;5033840;28;20057;-49
2023/07/06 07:28:42;;;;;;;3.70;0.93;;;;;;;21.38;54.59;100071.78;5044019;28;20052;-45
2023/07/06 07:31:11;;;;;;;2.95;0.68;;;;;;;21.62;53.44;100066.25;5039758;28;20050;-51
2023/07/06 07:33:41;;;;;;;4.10;0.90;;;;;;;21.81;53.87;100059.16;5037413;28;20136;-44
2023/07/06 07:36:10;;;;;;;1.80;1.00;;;;;;;22.03;53.74;100068.63;5036486;28;20052;-51
2023/07/06 07:38:37;;;;;;;4.03;1.02;;;;;;;22.26;53.00;100066.59;5036552;28;20041;-41
2023/07/06 07:41:06;;;;;;;3.20;1.30;;;;;;;22.37;51.73;100057.28;5029874;28;20118;-41
2023/07/06 07:43:36;;;;;;;3.25;1.17;;;;;;;22.54;51.88;100064.28;5035531;28;20549;-49
2023/07/06 07:46:04;;;;;;;;;;;;;;;22.69;52.86;100063.50;5035363;28;20060;-46
2023/07/06 07:48:33;;;;;;;2.63;0.93;;;;;;;22.95;52.01;100061.25;5033903;28;19928;-49
2023/07/06 07:51:03;;;;;;;3.50;2.10;;;;;;;23.13;50.70;100068.25;5035056;28;20560;-51
2023/07/06 07:53:33;;;;;;;2.65;1.00;;;;;;;23.27;49.61;100064.84;5035188;28;20056;-48
2023/07/06 07:56:00;;;;;;;3.30;0.85;;;;;;;23.39;49.96;100068.59;5035958;28;20050;-49
2023/07/06 07:58:27;;;;;;;4.85;1.10;;;;;;;23.52;49.56;100063.47;5036270;28;20054;-47
2023/07/06 08:00:55;;;;;;;3.20;1.13;;;;;;;23.67;49.06;100067.06;5036888;28;20060;-45
2023/07/06 08:03:23;;;;;;;3.40;1.23;;;;;;;23.84;48.31;100072.19;5034976;28;20118;-46
2023/07/06 08:05:54;;;;;;;3.50;0.88;;;;;;;23.98;48.61;100067.91;5034627;28;20501;-45
2023/07/06 08:08:22;;;;;;;5.28;1.20;;;;;;;24.09;48.52;100068.13;5032000;28;20519;-52
2023/07/06 08:10:51;;;;;;;4.05;1.00;;;;;;;24.24;48.01;100070.81;5036714;28;20477;-50
2023/07/06 08:13:17;;;;;;;4.65;1.00;;;;;;;24.38;47.84;100068.19;5036288;28;20520;-48
2023/07/06 08:15:44;;;;;;;1.98;0.85;;;;;;;24.56;47.72;100065.38;5034858;28;20516;-48
2023/07/06 08:18:11;;;;;;;2.95;1.23;;;;;;;24.67;47.18;100074.44;5034295;28;20049;-42
2023/07/06 08:20:38;;;;;;;1.58;0.63;;;;;;;24.80;46.78;100067.44;5030155;28;20053;-41
2023/07/06 08:23:27;;;;;;;3.13;1.05;;;;;;;25.06;47.00;100062.31;5017075;28;20057;-47
2023/07/06 08:25:54;;;;;;;2.83;1.02;;;;;;;25.29;46.77;100062.63;5024397;28;20041;-47
2023/07/06 08:28:24;;;;;;;3.90;0.93;;;;;;;25.50;46.00;100057.72;5019217;28;20045;-44
2023/07/06 08:30:52;;;;;;;4.70;1.15;;;;;;;25.65;45.71;100058.56;5014714;28;20037;-45
2023/07/06 08:33:22;;;;;;;4.15;1.38;;;;;;;25.84;44.76;100062.66;5022040;28;20064;-47
2023/07/06 08:35:50;;;;;;;2.92;1.17;;;;;;;25.87;44.58;100057.13;5011971;28;20136;-41
2023/07/06 08:38:17;;;;;;;3.65;1.33;;;;;;;25.98;45.04;100061.72;5024936;28;20068;-50
2023/07/06 08:40:48;;;;;;;5.45;1.13;;;;;;;26.06;44.14;100058.53;5022282;28;20050;-45
2023/07/06 08:43:19;;;;;;;3.47;1.05;;;;;;;26.14;44.01;100048.22;5021194;28;20042;-43
2023/07/06 08:45:49;;;;;;;2.08;0.80;;;;;;;26.23;43.96;100051.22;5015851;28;20130;-45
2023/07/06 08:48:19;;;;;;;1.85;0.60;;;;;;;26.41;43.19;100049.97;5023258;28;20049;-47
2023/07/06 08:50:51;;;;;;;1.10;0.77;;;;;;;26.55;41.80;100051.66;5019163;28;20053;-47
2023/07/06 08:53:27;;;;;;;1.10;0.70;;;;;;;26.72;41.53;100054.09;4996892;28;20124;-48
2023/07/06 08:55:56;;;;;;;4.07;0.98;;;;;;;26.90;41.08;100049.25;5021172;28;20041;-45
2023/07/06 08:58:27;;;;;;;3.70;0.70;;;;;;;26.95;41.35;100047.97;5010683;28;20042;-46
2023/07/06 09:01:02;;;;;;;1.52;0.93;;;;;;;27.04;40.74;100050.94;5013903;28;20042;-46
2023/07/06 09:03:37;;;;;;;4.68;0.95;;;;;;;26.95;40.80;100058.59;5018515;28;20060;-42
2023/07/06 09:06:04;;;;;;;2.55;0.90;;;;;;;26.78;41.09;100057.16;5016401;28;20072;-46
2023/07/06 09:08:31;;;;;;;2.55;1.75;;;;;;;26.74;41.57;100062.81;5021357;28;20057;-48
2023/07/06 09:10:57;;;;;;;3.17;0.90;;;;;;;26.69;41.56;100058.63;5017642;28;20042;-46
2023/07/06 09:13:49;;;;;;;3.90;1.15;;;;;;;26.67;41.63;100062.38;5019273;28;20061;-42
2023/07/06 09:16:20;;;;;;;3.30;1.25;;;;;;;26.74;41.11;100063.63;5022139;28;20099;-45
2023/07/06 09:18:48;;;;;;;2.88;1.20;;;;;;;26.81;42.07;100067.56;5019298;28;20049;-49
2023/07/06 09:21:17;;;;;;;2.88;1.02;;;;;;;26.93;42.00;100068.50;5014418;28;20042;-46
2023/07/06 09:23:45;;;;;;;2.50;1.20;;;;;;;26.97;40.99;100068.28;5016136;28;20045;-51
2023/07/06 09:26:27;;;;;;;1.92;1.00;;;;;;;26.93;40.78;100065.84;5024540;28;20136;-49
2023/07/06 09:29:21;;;;;;;6.57;1.25;;;;;;;27.03;41.79;100065.19;5014694;28;20060;-46
2023/07/06 09:31:48;;;;;;;;;;;;;;;27.05;42.02;100071.28;5016836;28;20139;-49
2023/07/06 09:34:24;;;;;;;1.85;0.93;;;;;;;27.10;41.54;100070.91;5016689;28;19929;-46
2023/07/06 09:36:51;;;;;;;3.95;1.02;;;;;;;27.27;40.58;100077.66;5019562;28;20128;-47
2023/07/06 09:39:18;;;;;;;2.70;1.20;;;;;;;27.52;40.88;100082.03;5023154;28;20508;-43
2023/07/06 09:41:45;;;;;;;2.13;0.68;;;;;;;27.68;40.88;100076.47;5014857;28;20053;-44
2023/07/06 09:44:16;;;;;;;3.70;1.00;;;;;;;27.74;39.78;100079.59;5023687;28;20060;-46
2023/07/06 09:46:43;;;;;;;4.38;0.90;;;;;;;27.73;39.61;100080.59;5023837;28;20084;-44
2023/07/06 09:49:17;;;;;;;1.67;0.88;;;;;;;27.83;39.72;100085.09;5019144;28;20052;-45
2023/07/06 09:52:09;;;;;;;3.67;1.10;;;;;;;27.88;38.86;100082.09;5022089;28;20448;-47
2023/07/06 09:55:02;;;;;;;1.98;1.05;;;;;;;27.84;39.05;100085.94;5011512;28;20046;-50
2023/07/06 09:57:34;;;;;;;3.78;1.20;;;;;;;27.79;39.33;100080.13;5018321;28;20564;-44
2023/07/06 10:00:03;;;;;;;2.70;1.10;;;;;;;27.74;38.90;100080.47;5021016;28;20041;-49
2023/07/06 10:02:49;;;;;;;;;;;;;;;27.72;39.43;100071.75;5023030;28;20061;-42
2023/07/06 10:08:31;;;;;;;3.53;1.08;;;;;;;27.83;38.26;100089.59;5108519;27;20396;-42
2023/07/06 10:11:12;;;;;;;2.30;1.00;;;;;;;27.58;38.34;100086.91;5073689;28;20143;-49
2023/07/06 10:13:53;;;;;;;4.18;1.35;;;;;;;27.53;38.94;100080.22;5076961;28;20044;-51
2023/07/06 10:16:49;;;;;;;2.22;1.13;;;;;;;27.37;38.70;100076.03;5094977;28;20067;-46
2023/07/06 10:19:25;;;;;;;4.40;1.48;;;;;;;27.17;37.95;100078.34;5098538;28;20139;-47
2023/07/06 10:27:19;;;;;;;3.60;1.67;;;;;;;27.39;37.22;100087.41;5067121;27;20910;-44
2023/07/06 10:29:54;;;;;;;3.78;1.83;;;;;;;27.06;38.90;100080.94;5025774;28;20046;-48
2023/07/06 10:32:24;;;;;;;;;;;;;;;26.75;39.11;100089.22;5027241;28;20053;-50
2023/07/06 10:35:30;;;;;;;6.25;1.63;;;;;;;26.65;39.84;100089.03;5040594;28;20019;-50
2023/07/06 10:37:58;;;;;;;2.53;2.15;;;;;;;26.54;40.02;100088.94;5039045;28;20045;-47
2023/07/06 10:40:27;;;;;;;4.68;1.52;;;;;;;26.43;39.68;100087.91;5039055;28;20059;-48
2023/07/06 10:45:52;;;;;;;5.45;1.70;;;;;;;26.17;40.10;100100.25;5065298;27;20396;-50
2023/07/06 10:51:20;;;;;;;2.33;1.15;;;;;;;26.27;40.64;100089.88;5017911;27;20439;-53
2023/07/06 10:56:37;;;;;;;4.28;3.03;;;;;;;26.95;40.04;100090.47;5025125;28;20393;-46
2023/07/06 10:59:04;;;;;;;3.83;2.45;;;;;;;27.03;39.91;100086.47;4983255;28;20049;-49
2023/07/06 11:01:37;;;;;;;3.92;3.15;;;;;;;27.05;39.14;100088.03;4988221;28;20077;-47
2023/07/06 11:04:41;;;;;;;2.90;2.30;;;;;;;26.95;39.19;100089.66;4984584;28;20054;-52
2023/07/06 11:07:11;;;;;;;5.85;3.50;;;;;;;26.94;38.49;100078.16;5008621;28;20541;-51
2023/07/06 11:10:19;;;;;;;3.67;2.65;;;;;;;26.88;38.27;100077.75;4989658;28;20499;-49
2023/07/06 11:12:52;;;;;;;4.32;2.35;;;;;;;27.02;39.24;100076.81;4991130;28;20113;-51
2023/07/06 11:15:25;;;;;;;3.08;2.45;;;;;;;27.20;38.66;100072.81;5016956;28;20137;-47
2023/07/06 11:17:55;;;;;;;3.67;2.58;;;;;;;27.42;38.59;100079.19;4986712;28;20046;-49
2023/07/06 11:20:28;;;;;;;3.58;2.90;;;;;;;27.53;38.31;100072.25;4992089;28;20550;-48
2023/07/06 11:23:00;;;;;;;3.83;2.05;;;;;;;27.37;37.71;100077.84;4996784;28;20129;-44
2023/07/06 11:25:29;;;;;;;3.28;2.35;;;;;;;27.11;38.10;100083.28;4988364;28;20513;-48
2023/07/06 11:28:01;;;;;;;;;;;;;;;26.55;38.37;100082.69;4989667;28;20157;-46
2023/07/06 11:30:49;;;;;;;4.25;2.35;;;;;;;26.47;38.02;100085.03;4990423;28;19932;-46
2023/07/06 11:44:02;;;;;;;3.65;1.13;;;;;;;25.85;39.29;100090.88;5048641;28;20405;-50
2023/07/06 11:51:45;;;;;;;2.28;0.80;;;;;;;26.26;39.84;100077.53;5059803;27;20814;-53
2023/07/06 11:54:39;;;;;;;2.22;1.02;;;;;;;26.41;39.86;100060.59;5050703;28;20059;-51
2023/07/06 11:59:55;;;;;;;2.67;1.00;;;;;;;26.61;39.18;100071.63;5053593;28;20077;-53
2023/07/06 12:02:27;;;;;;;3.72;1.00;;;;;;;26.58;39.23;100071.84;5054061;28;20148;-47
2023/07/06 12:04:53;;;;;;;4.10;1.33;;;;;;;26.42;39.00;100059.66;5037268;28;20048;-47
2023/07/06 12:07:30;;;;;;;3.25;1.60;;;;;;;26.30;38.99;100064.00;5034135;28;20045;-52
2023/07/06 12:10:06;;;;;;;2.78;0.93;;;;;;;26.33;39.62;100057.63;5036232;28;20045;-46
2023/07/06 12:12:35;;;;;;;2.95;0.93;;;;;;;26.39;39.61;100065.16;5033911;28;20150;-49
2023/07/06 12:15:05;;;;;;;1.73;1.10;;;;;;;26.36;38.58;100057.41;5035486;28;20081;-47
2023/07/06 12:17:32;;;;;;;1.83;1.00;;;;;;;26.26;39.08;100051.88;5035334;28;20056;-47
2023/07/06 12:19:59;;;;;;;5.85;1.23;;;;;;;26.13;39.07;100062.47;5034562;28;20727;-49
2023/07/06 12:22:26;;;;;;;2.65;1.30;;;;;;;25.90;38.94;100051.63;5037715;28;20081;-45
2023/07/06 12:24:55;;;;;;;4.43;1.10;;;;;;;25.75;39.62;100047.34;5035096;28;20053;-51
2023/07/06 12:27:22;;;;;;;2.50;1.17;;;;;;;25.62;39.33;100037.56;5032919;28;20052;-52
2023/07/06 12:29:49;;;;;;;3.13;1.17;;;;;;;25.50;39.34;100043.66;5036023;28;20045;-50
2023/07/06 12:32:19;;;;;;;3.28;1.83;;;;;;;25.42;39.40;100042.34;5037667;28;20052;-48
2023/07/06 12:34:49;;;;;;;2.53;1.30;;;;;;;25.38;39.51;100030.25;5065448;28;20547;-46